Orlando International Airport
KMCO : now visible

Airfield :











YOU CAN JOIN US ON...

 
LOGIN :

Register | Disclaimer

   EN    FR    IT 

 









Legend :    VFR   Marginal VFR   IFR   Intensive IFR   Very Intensive IFR
Visi :
Ceiling :
>= 8 km
>= 3000ft
5 to 8 km
1000 to 3000 ft
1500m to 5 km
500 to 1000 ft
800 to 1500m
200 to 500 ft
< 800m
< 200 ft
Symbols :   Thunderstorms  Fog  Heavy snow  Heavy precipitations  Wind > 20 kt






- Airport Elevation : 96 ft
- IATA code : MCO


KMCO - Orlando International

CURRENT METAR :
  • 291153Z 00000KT 8SM BCFG SCT036 SCT280 17/16 A3021 RMK AO2 SLP228 T01720161 10200 20161 51019

EXPIRED METARs :
  • 291053Z 00000KT 10SM FEW050 SCT300 17/16 A3019 RMK AO2 SLP222 T01720161
  • 290953Z 00000KT 10SM FEW050 SCT300 17/17 A3018 RMK AO2 SLP217 T01720167
  • 290853Z 17007KT 10SM FEW055 SCT300 16/16 A3015 RMK AO2 SLP209 T01610156 56009
  • 290753Z 17003KT 10SM FEW300 17/16 A3016 RMK AO2 SLP211 T01670156

TAF KMCO
Valid from the 29 at 12:00 until the 01 at 18:00 UTC


291139Z 2912/0118 00000KT P6SM FEW050 SCT300
TEMPO 2912/2914 4SM BR SCT009
FM291400 02009KT P6SM SCT009 BKN025
FM291800 04012G18KT P6SM OVC035
FM010300 03007KT P6SM OVC015
FM010900 06004KT P6SM SCT015 SCT060 BKN250
FM011400 15011KT P6SM BKN035
KZMA FIR / North America



MET'MAP, your aeronautical weather chart ! - Copyright ORBIFLY December 2007 - Disclaimer

ORBIFLY MET'MAP TEAM :

Programming & Development : Alexandra Zaïnal
Original concept : Baudouin d'Aumeries
Technical & hardware support : Manuel Goepfert
Assistance : Marc-Olivier Méhu




SOURCES & CREDITS :

   NOAA       Earth
Advisory